sensor_id;sensor_type;location;lat;lon;timestamp;P1;durP1;ratioP1;P2;durP2;ratioP2
69183;SDS011;56291;53.960;27.550;2023-06-26T05:32:02;4.63;;;2.92;;
69183;SDS011;56291;53.960;27.550;2023-06-26T05:34:28;5.80;;;2.78;;
69183;SDS011;56291;53.960;27.550;2023-06-26T05:36:59;4.57;;;2.83;;
69183;SDS011;56291;53.960;27.550;2023-06-26T05:39:26;5.70;;;2.88;;
69183;SDS011;56291;53.960;27.550;2023-06-26T05:41:53;8.35;;;2.90;;
69183;SDS011;56291;53.960;27.550;2023-06-26T05:44:19;7.30;;;2.72;;
69183;SDS011;56291;53.960;27.550;2023-06-26T05:46:46;5.65;;;2.78;;
69183;SDS011;56291;53.960;27.550;2023-06-26T05:49:12;5.47;;;2.90;;
69183;SDS011;56291;53.960;27.550;2023-06-26T05:51:38;8.15;;;2.90;;
69183;SDS011;56291;53.960;27.550;2023-06-26T05:54:05;4.70;;;2.97;;
69183;SDS011;56291;53.960;27.550;2023-06-26T05:56:31;4.97;;;3.00;;
69183;SDS011;56291;53.960;27.550;2023-06-26T05:58:58;4.05;;;2.90;;
69183;SDS011;56291;53.960;27.550;2023-06-26T06:01:26;6.13;;;2.83;;
69183;SDS011;56291;53.960;27.550;2023-06-26T06:03:53;4.65;;;2.85;;
69183;SDS011;56291;53.960;27.550;2023-06-26T06:06:19;5.93;;;2.85;;
69183;SDS011;56291;53.960;27.550;2023-06-26T06:08:45;9.40;;;3.20;;
69183;SDS011;56291;53.960;27.550;2023-06-26T06:11:12;5.47;;;2.90;;
69183;SDS011;56291;53.960;27.550;2023-06-26T06:13:40;5.25;;;2.70;;
69183;SDS011;56291;53.960;27.550;2023-06-26T06:16:06;4.50;;;2.95;;
69183;SDS011;56291;53.960;27.550;2023-06-26T06:18:32;4.20;;;2.67;;
69183;SDS011;56291;53.960;27.550;2023-06-26T06:20:58;4.43;;;2.65;;
69183;SDS011;56291;53.960;27.550;2023-06-26T06:23:25;3.92;;;2.70;;
69183;SDS011;56291;53.960;27.550;2023-06-26T06:25:52;5.05;;;2.83;;
69183;SDS011;56291;53.960;27.550;2023-06-26T06:28:18;4.18;;;2.65;;
69183;SDS011;56291;53.960;27.550;2023-06-26T06:30:44;6.20;;;2.90;;
69183;SDS011;56291;53.960;27.550;2023-06-26T06:33:12;6.90;;;2.80;;
69183;SDS011;56291;53.960;27.550;2023-06-26T06:35:38;7.53;;;2.50;;
69183;SDS011;56291;53.960;27.550;2023-06-26T06:38:05;2.75;;;2.40;;
69183;SDS011;56291;53.960;27.550;2023-06-26T06:40:31;6.90;;;3.08;;
69183;SDS011;56291;53.960;27.550;2023-06-26T06:42:57;4.93;;;2.40;;
69183;SDS011;56291;53.960;27.550;2023-06-26T06:45:23;3.70;;;2.40;;
69183;SDS011;56291;53.960;27.550;2023-06-26T06:47:49;3.28;;;2.40;;
69183;SDS011;56291;53.960;27.550;2023-06-26T06:50:15;3.88;;;2.40;;
69183;SDS011;56291;53.960;27.550;2023-06-26T06:52:43;5.57;;;2.67;;
69183;SDS011;56291;53.960;27.550;2023-06-26T06:55:09;6.15;;;5.45;;
69183;SDS011;56291;53.960;27.550;2023-06-26T06:57:36;5.57;;;3.08;;
69183;SDS011;56291;53.960;27.550;2023-06-26T07:00:05;5.63;;;2.85;;
69183;SDS011;56291;53.960;27.550;2023-06-26T07:02:39;4.50;;;2.97;;
69183;SDS011;56291;53.960;27.550;2023-06-26T07:05:07;3.45;;;3.00;;
69183;SDS011;56291;53.960;27.550;2023-06-26T07:07:34;3.10;;;2.65;;
69183;SDS011;56291;53.960;27.550;2023-06-26T07:10:03;4.82;;;2.70;;
69183;SDS011;56291;53.960;27.550;2023-06-26T07:12:34;3.42;;;2.45;;
69183;SDS011;56291;53.960;27.550;2023-06-26T07:15:01;3.95;;;2.78;;
69183;SDS011;56291;53.960;27.550;2023-06-26T07:17:29;4.15;;;2.45;;
69183;SDS011;56291;53.960;27.550;2023-06-26T07:19:56;3.72;;;2.45;;
69183;SDS011;56291;53.960;27.550;2023-06-26T07:22:23;4.72;;;2.42;;
69183;SDS011;56291;53.960;27.550;2023-06-26T07:24:49;5.95;;;2.42;;
69183;SDS011;56291;53.960;27.550;2023-06-26T07:27:15;4.95;;;2.65;;
69183;SDS011;56291;53.960;27.550;2023-06-26T07:29:43;4.95;;;2.42;;
69183;SDS011;56291;53.960;27.550;2023-06-26T07:32:09;4.63;;;2.25;;
69183;SDS011;56291;53.960;27.550;2023-06-26T07:34:35;2.60;;;2.38;;
69183;SDS011;56291;53.960;27.550;2023-06-26T07:37:02;3.22;;;2.10;;
69183;SDS011;56291;53.960;27.550;2023-06-26T07:39:28;5.80;;;2.83;;
69183;SDS011;56291;53.960;27.550;2023-06-26T07:41:55;4.90;;;2.42;;
69183;SDS011;56291;53.960;27.550;2023-06-26T07:44:24;6.38;;;2.50;;
69183;SDS011;56291;53.960;27.550;2023-06-26T07:46:51;7.35;;;2.80;;
69183;SDS011;56291;53.960;27.550;2023-06-26T07:49:17;9.55;;;2.20;;
69183;SDS011;56291;53.960;27.550;2023-06-26T07:51:44;3.83;;;2.20;;
69183;SDS011;56291;53.960;27.550;2023-06-26T07:54:10;2.30;;;2.05;;
69183;SDS011;56291;53.960;27.550;2023-06-26T07:56:58;3.38;;;2.35;;
69183;SDS011;56291;53.960;27.550;2023-06-26T07:59:27;2.67;;;1.88;;
69183;SDS011;56291;53.960;27.550;2023-06-26T08:01:55;3.35;;;2.20;;
69183;SDS011;56291;53.960;27.550;2023-06-26T08:04:23;2.38;;;1.90;;
69183;SDS011;56291;53.960;27.550;2023-06-26T08:06:54;2.42;;;1.95;;
69183;SDS011;56291;53.960;27.550;2023-06-26T08:09:22;5.45;;;1.90;;
69183;SDS011;56291;53.960;27.550;2023-06-26T08:11:50;4.15;;;1.92;;
69183;SDS011;56291;53.960;27.550;2023-06-26T08:14:18;6.85;;;2.30;;
69183;SDS011;56291;53.960;27.550;2023-06-26T08:16:44;3.22;;;1.85;;
69183;SDS011;56291;53.960;27.550;2023-06-26T08:19:11;3.10;;;1.85;;
69183;SDS011;56291;53.960;27.550;2023-06-26T08:21:39;3.83;;;1.90;;
69183;SDS011;56291;53.960;27.550;2023-06-26T08:24:06;4.03;;;2.15;;
69183;SDS011;56291;53.960;27.550;2023-06-26T08:26:33;2.33;;;1.92;;
69183;SDS011;56291;53.960;27.550;2023-06-26T08:29:00;3.95;;;2.15;;
69183;SDS011;56291;53.960;27.550;2023-06-26T08:31:32;5.25;;;2.28;;
69183;SDS011;56291;53.960;27.550;2023-06-26T08:33:59;3.67;;;2.05;;
69183;SDS011;56291;53.960;27.550;2023-06-26T08:36:26;3.55;;;1.92;;
69183;SDS011;56291;53.960;27.550;2023-06-26T08:38:52;3.70;;;2.20;;
69183;SDS011;56291;53.960;27.550;2023-06-26T08:41:18;3.47;;;1.88;;
69183;SDS011;56291;53.960;27.550;2023-06-26T08:43:44;3.15;;;1.98;;
69183;SDS011;56291;53.960;27.550;2023-06-26T08:46:11;4.22;;;1.88;;
69183;SDS011;56291;53.960;27.550;2023-06-26T08:48:37;3.63;;;1.98;;
69183;SDS011;56291;53.960;27.550;2023-06-26T08:51:11;3.67;;;2.00;;
69183;SDS011;56291;53.960;27.550;2023-06-26T08:53:56;3.60;;;2.10;;
69183;SDS011;56291;53.960;27.550;2023-06-26T08:56:24;3.50;;;1.85;;
69183;SDS011;56291;53.960;27.550;2023-06-26T08:58:56;4.07;;;2.22;;
69183;SDS011;56291;53.960;27.550;2023-06-26T09:01:22;4.90;;;1.90;;
69183;SDS011;56291;53.960;27.550;2023-06-26T09:03:50;2.95;;;1.75;;
69183;SDS011;56291;53.960;27.550;2023-06-26T09:06:17;4.80;;;1.90;;
69183;SDS011;56291;53.960;27.550;2023-06-26T09:08:43;3.97;;;2.00;;
69183;SDS011;56291;53.960;27.550;2023-06-26T09:11:10;3.63;;;1.80;;
69183;SDS011;56291;53.960;27.550;2023-06-26T09:13:36;6.60;;;1.95;;
69183;SDS011;56291;53.960;27.550;2023-06-26T09:16:06;3.70;;;1.70;;
69183;SDS011;56291;53.960;27.550;2023-06-26T09:18:33;3.63;;;2.28;;
69183;SDS011;56291;53.960;27.550;2023-06-26T09:20:59;2.45;;;1.80;;
69183;SDS011;56291;53.960;27.550;2023-06-26T09:23:34;1.63;;;1.50;;
69183;SDS011;56291;53.960;27.550;2023-06-26T09:26:04;3.38;;;1.80;;
69183;SDS011;56291;53.960;27.550;2023-06-26T09:28:34;2.80;;;1.73;;
69183;SDS011;56291;53.960;27.550;2023-06-26T09:31:02;1.90;;;1.70;;
69183;SDS011;56291;53.960;27.550;2023-06-26T09:33:32;4.70;;;1.83;;
69183;SDS011;56291;53.960;27.550;2023-06-26T09:36:01;3.25;;;1.90;;
69183;SDS011;56291;53.960;27.550;2023-06-26T09:38:31;4.25;;;2.00;;
69183;SDS011;56291;53.960;27.550;2023-06-26T09:40:58;2.67;;;1.80;;
69183;SDS011;56291;53.960;27.550;2023-06-26T09:43:24;6.43;;;2.38;;
69183;SDS011;56291;53.960;27.550;2023-06-26T09:45:52;2.38;;;1.77;;
69183;SDS011;56291;53.960;27.550;2023-06-26T09:48:19;12.75;;;2.40;;
69183;SDS011;56291;53.960;27.550;2023-06-26T09:50:45;3.95;;;2.00;;
69183;SDS011;56291;53.960;27.550;2023-06-26T09:53:13;28.92;;;4.07;;
69183;SDS011;56291;53.960;27.550;2023-06-26T09:55:40;8.32;;;2.00;;
69183;SDS011;56291;53.960;27.550;2023-06-26T09:58:09;3.30;;;1.95;;
69183;SDS011;56291;53.960;27.550;2023-06-26T10:00:40;7.18;;;2.15;;
69183;SDS011;56291;53.960;27.550;2023-06-26T10:03:10;5.47;;;1.95;;
69183;SDS011;56291;53.960;27.550;2023-06-26T10:05:38;6.63;;;2.05;;
69183;SDS011;56291;53.960;27.550;2023-06-26T10:08:05;6.03;;;2.00;;
69183;SDS011;56291;53.960;27.550;2023-06-26T10:10:32;4.03;;;1.90;;
69183;SDS011;56291;53.960;27.550;2023-06-26T10:13:04;4.78;;;2.00;;
69183;SDS011;56291;53.960;27.550;2023-06-26T10:15:40;3.83;;;2.10;;
69183;SDS011;56291;53.960;27.550;2023-06-26T10:18:09;2.60;;;1.83;;
69183;SDS011;56291;53.960;27.550;2023-06-26T10:20:37;7.78;;;2.25;;
69183;SDS011;56291;53.960;27.550;2023-06-26T10:23:05;3.60;;;2.00;;
69183;SDS011;56291;53.960;27.550;2023-06-26T10:25:34;2.53;;;1.80;;
69183;SDS011;56291;53.960;27.550;2023-06-26T10:28:05;2.38;;;1.75;;
69183;SDS011;56291;53.960;27.550;2023-06-26T10:30:34;3.60;;;2.10;;
69183;SDS011;56291;53.960;27.550;2023-06-26T10:33:04;3.13;;;1.77;;
69183;SDS011;56291;53.960;27.550;2023-06-26T10:35:31;2.42;;;1.95;;
69183;SDS011;56291;53.960;27.550;2023-06-26T10:38:00;1.90;;;1.70;;
69183;SDS011;56291;53.960;27.550;2023-06-26T10:40:28;4.00;;;2.00;;
69183;SDS011;56291;53.960;27.550;2023-06-26T10:43:07;3.80;;;1.95;;
69183;SDS011;56291;53.960;27.550;2023-06-26T10:45:34;2.40;;;1.90;;
69183;SDS011;56291;53.960;27.550;2023-06-26T10:48:02;11.60;;;2.13;;
69183;SDS011;56291;53.960;27.550;2023-06-26T10:50:31;11.38;;;2.28;;
69183;SDS011;56291;53.960;27.550;2023-06-26T10:55:34;5.82;;;1.80;;
69183;SDS011;56291;53.960;27.550;2023-06-26T10:58:01;1.92;;;1.67;;
69183;SDS011;56291;53.960;27.550;2023-06-26T11:00:27;4.60;;;1.90;;
69183;SDS011;56291;53.960;27.550;2023-06-26T11:02:54;5.63;;;1.98;;
69183;SDS011;56291;53.960;27.550;2023-06-26T11:05:26;3.47;;;1.80;;
69183;SDS011;56291;53.960;27.550;2023-06-26T11:08:03;3.92;;;1.75;;
69183;SDS011;56291;53.960;27.550;2023-06-26T11:10:40;4.25;;;1.88;;
69183;SDS011;56291;53.960;27.550;2023-06-26T11:13:16;2.38;;;1.77;;
69183;SDS011;56291;53.960;27.550;2023-06-26T11:15:43;8.60;;;1.70;;
69183;SDS011;56291;53.960;27.550;2023-06-26T11:18:10;4.55;;;1.75;;
69183;SDS011;56291;53.960;27.550;2023-06-26T11:20:37;4.25;;;1.95;;
69183;SDS011;56291;53.960;27.550;2023-06-26T11:23:03;3.00;;;1.92;;
69183;SDS011;56291;53.960;27.550;2023-06-26T11:25:37;3.05;;;1.45;;
69183;SDS011;56291;53.960;27.550;2023-06-26T11:28:04;2.80;;;1.70;;
69183;SDS011;56291;53.960;27.550;2023-06-26T11:30:30;2.53;;;1.70;;
69183;SDS011;56291;53.960;27.550;2023-06-26T11:33:07;4.68;;;2.03;;
69183;SDS011;56291;53.960;27.550;2023-06-26T11:35:34;2.60;;;1.73;;
69183;SDS011;56291;53.960;27.550;2023-06-26T11:38:01;3.60;;;1.90;;
69183;SDS011;56291;53.960;27.550;2023-06-26T11:40:35;3.50;;;2.08;;
69183;SDS011;56291;53.960;27.550;2023-06-26T11:43:02;3.58;;;1.85;;
69183;SDS011;56291;53.960;27.550;2023-06-26T11:45:29;2.13;;;1.73;;
69183;SDS011;56291;53.960;27.550;2023-06-26T11:47:56;3.75;;;1.92;;
69183;SDS011;56291;53.960;27.550;2023-06-26T11:50:23;6.90;;;1.98;;
69183;SDS011;56291;53.960;27.550;2023-06-26T11:52:54;8.60;;;2.33;;
69183;SDS011;56291;53.960;27.550;2023-06-26T11:55:21;4.15;;;1.80;;
69183;SDS011;56291;53.960;27.550;2023-06-26T11:57:57;4.13;;;2.20;;
69183;SDS011;56291;53.960;27.550;2023-06-26T12:00:24;6.38;;;2.30;;
69183;SDS011;56291;53.960;27.550;2023-06-26T12:02:50;6.90;;;2.38;;
69183;SDS011;56291;53.960;27.550;2023-06-26T12:05:18;6.82;;;2.30;;
69183;SDS011;56291;53.960;27.550;2023-06-26T12:07:48;8.25;;;2.60;;
69183;SDS011;56291;53.960;27.550;2023-06-26T12:10:16;12.55;;;2.95;;
69183;SDS011;56291;53.960;27.550;2023-06-26T12:12:43;4.22;;;2.33;;
69183;SDS011;56291;53.960;27.550;2023-06-26T12:15:15;3.00;;;2.20;;
69183;SDS011;56291;53.960;27.550;2023-06-26T12:17:42;10.50;;;2.45;;
69183;SDS011;56291;53.960;27.550;2023-06-26T12:20:21;5.88;;;2.22;;
69183;SDS011;56291;53.960;27.550;2023-06-26T12:25:23;6.18;;;2.83;;
69183;SDS011;56291;53.960;27.550;2023-06-26T12:27:49;6.70;;;2.53;;
69183;SDS011;56291;53.960;27.550;2023-06-26T12:30:15;4.55;;;2.53;;
69183;SDS011;56291;53.960;27.550;2023-06-26T12:32:45;7.25;;;2.70;;
69183;SDS011;56291;53.960;27.550;2023-06-26T12:35:11;4.75;;;2.53;;
69183;SDS011;56291;53.960;27.550;2023-06-26T12:37:38;5.43;;;2.65;;
69183;SDS011;56291;53.960;27.550;2023-06-26T12:40:05;4.47;;;2.40;;
69183;SDS011;56291;53.960;27.550;2023-06-26T12:42:47;4.03;;;2.20;;
69183;SDS011;56291;53.960;27.550;2023-06-26T12:45:13;5.25;;;2.17;;
69183;SDS011;56291;53.960;27.550;2023-06-26T12:47:40;4.35;;;2.20;;
69183;SDS011;56291;53.960;27.550;2023-06-26T12:50:07;2.80;;;2.35;;
69183;SDS011;56291;53.960;27.550;2023-06-26T12:52:33;3.03;;;2.50;;
69183;SDS011;56291;53.960;27.550;2023-06-26T12:55:00;3.10;;;2.42;;
69183;SDS011;56291;53.960;27.550;2023-06-26T12:57:26;4.03;;;2.30;;
69183;SDS011;56291;53.960;27.550;2023-06-26T12:59:52;6.65;;;2.45;;
69183;SDS011;56291;53.960;27.550;2023-06-26T13:02:18;5.07;;;2.53;;
69183;SDS011;56291;53.960;27.550;2023-06-26T13:04:44;3.25;;;2.40;;
69183;SDS011;56291;53.960;27.550;2023-06-26T13:07:11;6.28;;;2.35;;
69183;SDS011;56291;53.960;27.550;2023-06-26T13:09:38;5.65;;;2.55;;
69183;SDS011;56291;53.960;27.550;2023-06-26T13:12:06;7.68;;;2.53;;
69183;SDS011;56291;53.960;27.550;2023-06-26T13:14:32;7.85;;;2.70;;
69183;SDS011;56291;53.960;27.550;2023-06-26T13:17:00;3.80;;;2.45;;
69183;SDS011;56291;53.960;27.550;2023-06-26T13:19:26;4.10;;;2.35;;
69183;SDS011;56291;53.960;27.550;2023-06-26T13:21:52;5.63;;;2.42;;
69183;SDS011;56291;53.960;27.550;2023-06-26T13:24:19;4.88;;;2.45;;
69183;SDS011;56291;53.960;27.550;2023-06-26T13:26:45;6.55;;;2.30;;
69183;SDS011;56291;53.960;27.550;2023-06-26T13:29:12;3.38;;;2.30;;
69183;SDS011;56291;53.960;27.550;2023-06-26T13:31:38;4.90;;;2.60;;
69183;SDS011;56291;53.960;27.550;2023-06-26T13:34:04;4.05;;;2.35;;
69183;SDS011;56291;53.960;27.550;2023-06-26T13:36:30;3.28;;;2.20;;
69183;SDS011;56291;53.960;27.550;2023-06-26T13:38:59;3.83;;;2.30;;
69183;SDS011;56291;53.960;27.550;2023-06-26T13:41:25;2.72;;;2.33;;
69183;SDS011;56291;53.960;27.550;2023-06-26T13:43:52;3.13;;;2.25;;
69183;SDS011;56291;53.960;27.550;2023-06-26T13:46:19;4.50;;;2.33;;
69183;SDS011;56291;53.960;27.550;2023-06-26T13:48:45;2.35;;;2.15;;
69183;SDS011;56291;53.960;27.550;2023-06-26T13:51:12;2.95;;;2.40;;
69183;SDS011;56291;53.960;27.550;2023-06-26T13:53:38;2.65;;;2.13;;
69183;SDS011;56291;53.960;27.550;2023-06-26T13:56:05;2.85;;;2.25;;
69183;SDS011;56291;53.960;27.550;2023-06-26T13:58:31;4.38;;;2.42;;
69183;SDS011;56291;53.960;27.550;2023-06-26T14:00:59;3.08;;;2.30;;
69183;SDS011;56291;53.960;27.550;2023-06-26T14:03:26;5.85;;;2.60;;
69183;SDS011;56291;53.960;27.550;2023-06-26T14:05:53;3.13;;;2.40;;
69183;SDS011;56291;53.960;27.550;2023-06-26T14:08:19;10.48;;;2.72;;
69183;SDS011;56291;53.960;27.550;2023-06-26T14:10:45;7.00;;;2.90;;
69183;SDS011;56291;53.960;27.550;2023-06-26T14:13:12;12.35;;;2.92;;
69183;SDS011;56291;53.960;27.550;2023-06-26T14:15:40;6.28;;;2.50;;
69183;SDS011;56291;53.960;27.550;2023-06-26T14:18:06;5.20;;;2.78;;
69183;SDS011;56291;53.960;27.550;2023-06-26T14:20:33;16.88;;;3.22;;
69183;SDS011;56291;53.960;27.550;2023-06-26T14:23:00;11.10;;;3.00;;
69183;SDS011;56291;53.960;27.550;2023-06-26T14:25:28;8.88;;;3.03;;
69183;SDS011;56291;53.960;27.550;2023-06-26T14:27:55;28.08;;;4.13;;
69183;SDS011;56291;53.960;27.550;2023-06-26T14:30:22;36.45;;;4.03;;
69183;SDS011;56291;53.960;27.550;2023-06-26T14:32:48;12.88;;;2.70;;
69183;SDS011;56291;53.960;27.550;2023-06-26T14:35:15;5.50;;;2.50;;
69183;SDS011;56291;53.960;27.550;2023-06-26T14:37:41;6.28;;;2.80;;
69183;SDS011;56291;53.960;27.550;2023-06-26T14:40:09;14.30;;;2.97;;
69183;SDS011;56291;53.960;27.550;2023-06-26T14:42:35;41.90;;;4.88;;
69183;SDS011;56291;53.960;27.550;2023-06-26T14:45:01;38.10;;;4.20;;
69183;SDS011;56291;53.960;27.550;2023-06-26T14:47:28;9.85;;;3.10;;
69183;SDS011;56291;53.960;27.550;2023-06-26T14:49:54;17.58;;;3.13;;
69183;SDS011;56291;53.960;27.550;2023-06-26T14:52:20;9.77;;;2.92;;
69183;SDS011;56291;53.960;27.550;2023-06-26T14:54:46;11.50;;;2.70;;
69183;SDS011;56291;53.960;27.550;2023-06-26T14:57:13;15.35;;;3.03;;
69183;SDS011;56291;53.960;27.550;2023-06-26T14:59:39;6.43;;;2.60;;
69183;SDS011;56291;53.960;27.550;2023-06-26T15:02:05;12.43;;;3.08;;
69183;SDS011;56291;53.960;27.550;2023-06-26T15:04:31;12.77;;;2.80;;
69183;SDS011;56291;53.960;27.550;2023-06-26T15:06:58;12.70;;;2.92;;
69183;SDS011;56291;53.960;27.550;2023-06-26T15:09:24;20.15;;;3.42;;
69183;SDS011;56291;53.960;27.550;2023-06-26T15:11:51;6.97;;;2.75;;
69183;SDS011;56291;53.960;27.550;2023-06-26T15:14:17;13.73;;;2.92;;
69183;SDS011;56291;53.960;27.550;2023-06-26T15:16:43;5.28;;;2.13;;
69183;SDS011;56291;53.960;27.550;2023-06-26T15:19:09;4.22;;;2.45;;
69183;SDS011;56291;53.960;27.550;2023-06-26T15:21:35;6.35;;;2.20;;
69183;SDS011;56291;53.960;27.550;2023-06-26T15:24:01;15.52;;;2.90;;
69183;SDS011;56291;53.960;27.550;2023-06-26T15:26:28;8.77;;;3.00;;
69183;SDS011;56291;53.960;27.550;2023-06-26T15:28:56;10.63;;;3.08;;
69183;SDS011;56291;53.960;27.550;2023-06-26T15:31:22;5.43;;;3.25;;
69183;SDS011;56291;53.960;27.550;2023-06-26T15:33:48;3.75;;;2.70;;
69183;SDS011;56291;53.960;27.550;2023-06-26T15:36:14;4.93;;;2.50;;
69183;SDS011;56291;53.960;27.550;2023-06-26T15:38:41;10.00;;;2.60;;
69183;SDS011;56291;53.960;27.550;2023-06-26T15:41:07;13.15;;;3.35;;
69183;SDS011;56291;53.960;27.550;2023-06-26T15:43:33;6.00;;;2.47;;
69183;SDS011;56291;53.960;27.550;2023-06-26T15:45:59;19.42;;;3.33;;
69183;SDS011;56291;53.960;27.550;2023-06-26T15:48:25;9.52;;;2.47;;
69183;SDS011;56291;53.960;27.550;2023-06-26T15:50:53;6.40;;;2.78;;
69183;SDS011;56291;53.960;27.550;2023-06-26T15:53:19;5.18;;;2.53;;
69183;SDS011;56291;53.960;27.550;2023-06-26T15:55:58;6.35;;;2.50;;
69183;SDS011;56291;53.960;27.550;2023-06-26T15:58:24;6.28;;;2.60;;
69183;SDS011;56291;53.960;27.550;2023-06-26T16:00:50;4.35;;;2.25;;
69183;SDS011;56291;53.960;27.550;2023-06-26T16:03:16;4.72;;;2.50;;
69183;SDS011;56291;53.960;27.550;2023-06-26T16:05:42;8.50;;;2.72;;
69183;SDS011;56291;53.960;27.550;2023-06-26T16:08:08;3.17;;;2.20;;
69183;SDS011;56291;53.960;27.550;2023-06-26T16:10:37;7.85;;;2.75;;
69183;SDS011;56291;53.960;27.550;2023-06-26T16:13:03;4.28;;;2.50;;
69183;SDS011;56291;53.960;27.550;2023-06-26T16:15:29;2.78;;;2.15;;
69183;SDS011;56291;53.960;27.550;2023-06-26T16:17:55;7.10;;;2.40;;
69183;SDS011;56291;53.960;27.550;2023-06-26T16:20:22;5.35;;;2.80;;
69183;SDS011;56291;53.960;27.550;2023-06-26T16:22:48;6.10;;;2.80;;
69183;SDS011;56291;53.960;27.550;2023-06-26T16:25:14;6.50;;;2.40;;
69183;SDS011;56291;53.960;27.550;2023-06-26T16:27:41;7.53;;;2.53;;
69183;SDS011;56291;53.960;27.550;2023-06-26T16:30:10;4.32;;;2.53;;
69183;SDS011;56291;53.960;27.550;2023-06-26T16:32:36;3.60;;;2.53;;
69183;SDS011;56291;53.960;27.550;2023-06-26T16:35:03;4.43;;;2.60;;
69183;SDS011;56291;53.960;27.550;2023-06-26T16:37:29;6.65;;;2.65;;
69183;SDS011;56291;53.960;27.550;2023-06-26T16:39:55;7.28;;;2.50;;
69183;SDS011;56291;53.960;27.550;2023-06-26T16:42:22;5.53;;;2.60;;
69183;SDS011;56291;53.960;27.550;2023-06-26T16:44:48;7.15;;;2.83;;
69183;SDS011;56291;53.960;27.550;2023-06-26T16:47:14;12.15;;;2.50;;
69183;SDS011;56291;53.960;27.550;2023-06-26T16:49:42;4.90;;;2.45;;
69183;SDS011;56291;53.960;27.550;2023-06-26T16:52:08;4.10;;;2.47;;
69183;SDS011;56291;53.960;27.550;2023-06-26T16:54:34;3.50;;;2.10;;
69183;SDS011;56291;53.960;27.550;2023-06-26T16:57:01;3.38;;;2.25;;
69183;SDS011;56291;53.960;27.550;2023-06-26T16:59:27;3.67;;;2.40;;
69183;SDS011;56291;53.960;27.550;2023-06-26T17:01:53;4.22;;;2.45;;
69183;SDS011;56291;53.960;27.550;2023-06-26T17:04:21;2.70;;;2.25;;
69183;SDS011;56291;53.960;27.550;2023-06-26T17:06:47;4.40;;;2.65;;
69183;SDS011;56291;53.960;27.550;2023-06-26T17:09:14;3.67;;;2.40;;
69183;SDS011;56291;53.960;27.550;2023-06-26T17:11:40;4.13;;;2.45;;
69183;SDS011;56291;53.960;27.550;2023-06-26T17:14:06;4.30;;;2.63;;
69183;SDS011;56291;53.960;27.550;2023-06-26T17:16:33;6.07;;;2.72;;
69183;SDS011;56291;53.960;27.550;2023-06-26T17:18:59;6.28;;;2.38;;
69183;SDS011;56291;53.960;27.550;2023-06-26T17:21:25;3.33;;;2.55;;
69183;SDS011;56291;53.960;27.550;2023-06-26T17:23:51;3.00;;;2.30;;
69183;SDS011;56291;53.960;27.550;2023-06-26T17:26:18;6.20;;;2.55;;
69183;SDS011;56291;53.960;27.550;2023-06-26T17:28:45;5.20;;;2.70;;
69183;SDS011;56291;53.960;27.550;2023-06-26T17:31:11;3.28;;;2.33;;
69183;SDS011;56291;53.960;27.550;2023-06-26T17:33:37;3.72;;;2.30;;
69183;SDS011;56291;53.960;27.550;2023-06-26T17:36:03;3.22;;;2.30;;
69183;SDS011;56291;53.960;27.550;2023-06-26T17:38:30;3.83;;;2.45;;
69183;SDS011;56291;53.960;27.550;2023-06-26T17:40:58;3.33;;;2.13;;
69183;SDS011;56291;53.960;27.550;2023-06-26T17:43:24;6.90;;;2.63;;
69183;SDS011;56291;53.960;27.550;2023-06-26T17:45:50;3.78;;;2.50;;
69183;SDS011;56291;53.960;27.550;2023-06-26T17:48:16;3.97;;;2.20;;
69183;SDS011;56291;53.960;27.550;2023-06-26T17:50:43;2.97;;;2.28;;
69183;SDS011;56291;53.960;27.550;2023-06-26T17:53:09;3.35;;;2.50;;
69183;SDS011;56291;53.960;27.550;2023-06-26T17:55:35;6.40;;;2.60;;
69183;SDS011;56291;53.960;27.550;2023-06-26T17:58:01;5.13;;;2.30;;
69183;SDS011;56291;53.960;27.550;2023-06-26T18:00:27;3.78;;;2.30;;
69183;SDS011;56291;53.960;27.550;2023-06-26T18:02:54;9.38;;;3.15;;
69183;SDS011;56291;53.960;27.550;2023-06-26T18:05:21;3.65;;;2.55;;
69183;SDS011;56291;53.960;27.550;2023-06-26T18:07:47;2.90;;;2.30;;
69183;SDS011;56291;53.960;27.550;2023-06-26T18:10:13;6.30;;;2.63;;
69183;SDS011;56291;53.960;27.550;2023-06-26T18:12:40;3.75;;;2.60;;
69183;SDS011;56291;53.960;27.550;2023-06-26T18:15:06;3.53;;;2.67;;
69183;SDS011;56291;53.960;27.550;2023-06-26T18:17:32;4.68;;;2.60;;
69183;SDS011;56291;53.960;27.550;2023-06-26T18:20:00;6.03;;;3.00;;
69183;SDS011;56291;53.960;27.550;2023-06-26T18:22:28;3.72;;;2.78;;
69183;SDS011;56291;53.960;27.550;2023-06-26T18:24:54;3.75;;;2.63;;
69183;SDS011;56291;53.960;27.550;2023-06-26T18:27:20;5.15;;;3.03;;
69183;SDS011;56291;53.960;27.550;2023-06-26T18:29:46;6.32;;;3.03;;
69183;SDS011;56291;53.960;27.550;2023-06-26T18:32:12;3.88;;;2.78;;
69183;SDS011;56291;53.960;27.550;2023-06-26T18:34:38;4.93;;;3.05;;
69183;SDS011;56291;53.960;27.550;2023-06-26T18:37:04;5.88;;;3.42;;
69183;SDS011;56291;53.960;27.550;2023-06-26T18:39:31;10.27;;;4.68;;
69183;SDS011;56291;53.960;27.550;2023-06-26T18:41:57;8.18;;;4.10;;
69183;SDS011;56291;53.960;27.550;2023-06-26T18:44:23;14.15;;;5.75;;
69183;SDS011;56291;53.960;27.550;2023-06-26T18:46:49;5.20;;;3.78;;
69183;SDS011;56291;53.960;27.550;2023-06-26T18:49:16;6.68;;;3.67;;
69183;SDS011;56291;53.960;27.550;2023-06-26T18:51:42;5.68;;;3.88;;
69183;SDS011;56291;53.960;27.550;2023-06-26T18:54:08;7.90;;;4.70;;
69183;SDS011;56291;53.960;27.550;2023-06-26T18:56:34;8.88;;;4.70;;
69183;SDS011;56291;53.960;27.550;2023-06-26T18:59:00;8.15;;;4.95;;
69183;SDS011;56291;53.960;27.550;2023-06-26T19:01:27;10.52;;;5.82;;
69183;SDS011;56291;53.960;27.550;2023-06-26T19:03:53;7.80;;;4.43;;
69183;SDS011;56291;53.960;27.550;2023-06-26T19:06:19;7.22;;;4.38;;
69183;SDS011;56291;53.960;27.550;2023-06-26T19:08:45;8.63;;;4.03;;
69183;SDS011;56291;53.960;27.550;2023-06-26T19:11:11;11.65;;;5.32;;
69183;SDS011;56291;53.960;27.550;2023-06-26T19:13:45;6.15;;;4.25;;
69183;SDS011;56291;53.960;27.550;2023-06-26T19:16:14;9.18;;;5.10;;
69183;SDS011;56291;53.960;27.550;2023-06-26T19:18:42;9.65;;;4.40;;
69183;SDS011;56291;53.960;27.550;2023-06-26T19:21:09;7.47;;;4.35;;
69183;SDS011;56291;53.960;27.550;2023-06-26T19:23:36;11.80;;;4.55;;
69183;SDS011;56291;53.960;27.550;2023-06-26T19:26:02;7.68;;;4.03;;
69183;SDS011;56291;53.960;27.550;2023-06-26T19:28:32;6.43;;;4.03;;
69183;SDS011;56291;53.960;27.550;2023-06-26T19:30:58;7.95;;;4.78;;
69183;SDS011;56291;53.960;27.550;2023-06-26T19:33:24;9.30;;;4.82;;
69183;SDS011;56291;53.960;27.550;2023-06-26T19:35:51;8.60;;;4.72;;
69183;SDS011;56291;53.960;27.550;2023-06-26T19:38:17;6.55;;;3.88;;
69183;SDS011;56291;53.960;27.550;2023-06-26T19:40:43;7.75;;;4.45;;
69183;SDS011;56291;53.960;27.550;2023-06-26T19:43:09;6.57;;;4.10;;
69183;SDS011;56291;53.960;27.550;2023-06-26T19:45:36;7.85;;;3.80;;
69183;SDS011;56291;53.960;27.550;2023-06-26T19:48:03;6.22;;;3.92;;
69183;SDS011;56291;53.960;27.550;2023-06-26T19:50:29;6.95;;;4.07;;
69183;SDS011;56291;53.960;27.550;2023-06-26T19:52:56;5.68;;;4.07;;
69183;SDS011;56291;53.960;27.550;2023-06-26T19:55:22;7.25;;;3.90;;
69183;SDS011;56291;53.960;27.550;2023-06-26T19:57:48;8.45;;;3.92;;
69183;SDS011;56291;53.960;27.550;2023-06-26T20:00:14;5.97;;;3.40;;
69183;SDS011;56291;53.960;27.550;2023-06-26T20:02:41;8.57;;;3.80;;
69183;SDS011;56291;53.960;27.550;2023-06-26T20:05:08;5.93;;;3.78;;
69183;SDS011;56291;53.960;27.550;2023-06-26T20:07:34;6.07;;;3.60;;
69183;SDS011;56291;53.960;27.550;2023-06-26T20:10:03;4.82;;;3.03;;